Time,TemperatureF,DewpointF,PressureIn,WindDirection,WindDirectionDegrees,WindSpeedMPH,WindSpeedGustMPH,Humidity,HourlyPrecipIn,Conditions,Clouds,dailyrainin,SoftwareType,DateUTC
2013-11-26 00:13:00,32.0,15.0,30.30,WNW,283,1.0,12.0,49,0.00,,,0.00,,2013-11-26 05:13:00,
2013-11-26 00:23:00,32.0,15.0,30.30,WSW,258,3.0,12.0,49,0.00,,,0.00,,2013-11-26 05:23:00,
2013-11-26 00:43:00,32.0,15.0,30.30,WNW,293,3.0,13.0,50,0.00,,,0.00,,2013-11-26 05:43:00,
2013-11-26 00:53:00,32.0,15.0,30.29,WSW,254,4.0,8.0,50,0.00,,,0.00,,2013-11-26 05:53:00,
2013-11-26 01:12:00,32.0,15.0,30.30,WSW,254,4.0,10.0,50,0.00,,,0.00,,2013-11-26 06:12:00,
2013-11-26 01:22:00,32.0,16.0,30.30,West,280,4.0,8.0,51,0.00,,,0.00,,2013-11-26 06:22:00,
2013-11-26 01:42:00,32.0,16.0,30.31,WNW,284,3.0,7.0,51,0.00,,,0.00,,2013-11-26 06:42:00,
2013-11-26 01:52:00,32.0,16.0,30.30,NW,324,5.0,12.0,52,0.00,,,0.00,,2013-11-26 06:52:00,
2013-11-26 02:12:00,31.0,16.0,30.30,West,281,3.0,8.0,53,0.00,,,0.00,,2013-11-26 07:12:00,
2013-11-26 02:22:00,31.0,16.0,30.29,West,262,1.0,10.0,53,0.00,,,0.00,,2013-11-26 07:22:00,
2013-11-26 02:42:00,31.0,17.0,30.29,West,264,5.0,8.0,55,0.00,,,0.00,,2013-11-26 07:42:00,
2013-11-26 02:52:00,31.0,17.0,30.29,WSW,253,5.0,8.0,55,0.00,,,0.00,,2013-11-26 07:52:00,
2013-11-26 03:22:00,31.0,16.0,30.27,West,269,4.0,9.0,54,0.00,,,0.00,,2013-11-26 08:22:00,
2013-11-26 03:42:00,31.0,17.0,30.27,WSW,248,3.0,8.0,55,0.00,,,0.00,,2013-11-26 08:42:00,
2013-11-26 03:52:00,31.0,16.0,30.27,WSW,250,2.0,8.0,54,0.00,,,0.00,,2013-11-26 08:52:00,
2013-11-26 04:22:00,32.0,18.0,30.26,WSW,250,2.0,8.0,55,0.00,,,0.00,,2013-11-26 09:22:00,
2013-11-26 04:43:00,32.0,19.0,30.28,WSW,244,3.0,10.0,59,0.00,,,0.00,,2013-11-26 09:43:00,
2013-11-26 04:53:00,31.0,18.0,30.29,WNW,292,6.0,10.0,59,0.00,,,0.00,,2013-11-26 09:53:00,
2013-11-26 05:23:00,31.0,18.0,30.29,WNW,288,0.0,6.0,57,0.00,,,0.00,,2013-11-26 10:23:00,
2013-11-26 05:53:00,31.0,18.0,30.29,WSW,253,2.0,5.0,59,0.00,,,0.00,,2013-11-26 10:53:00,
2013-11-26 06:23:00,31.0,18.0,30.30,SW,233,2.0,7.0,59,0.00,,,0.00,,2013-11-26 11:23:00,
2013-11-26 06:52:00,31.0,18.0,30.30,WSW,250,0.0,5.0,57,0.00,,,0.00,,2013-11-26 11:52:00,
2013-11-26 07:22:00,32.0,18.0,30.30,West,275,1.0,3.0,56,0.00,,,0.00,,2013-11-26 12:22:00,
2013-11-26 07:42:00,32.0,19.0,30.32,NW,322,1.0,6.0,58,0.00,,,0.00,,2013-11-26 12:42:00,
2013-11-26 07:52:00,31.0,20.0,30.31,WSW,253,5.0,10.0,64,0.00,,,0.00,,2013-11-26 12:52:00,
2013-11-26 08:22:00,30.0,23.0,30.31,WNW,301,2.0,10.0,75,0.00,,,0.00,,2013-11-26 13:22:00,
2013-11-26 08:42:00,30.0,24.0,30.32,West,280,3.0,12.0,77,0.00,,,0.00,,2013-11-26 13:42:00,
2013-11-26 08:52:00,30.0,24.0,30.32,NW,321,5.0,8.0,77,0.00,,,0.00,,2013-11-26 13:52:00,
2013-11-26 09:22:00,30.0,24.0,30.31,WSW,250,3.0,7.0,77,0.00,,,0.00,,2013-11-26 14:22:00,
2013-11-26 09:52:00,31.0,25.0,30.31,WSW,255,3.0,6.0,78,0.00,,,0.00,,2013-11-26 14:52:00,
2013-11-26 10:22:00,32.0,26.0,30.32,West,278,2.0,3.0,77,0.00,,,0.00,,2013-11-26 15:22:00,
2013-11-26 10:54:00,33.0,27.0,30.31,WSW,250,3.0,6.0,77,0.00,,,0.00,,2013-11-26 15:54:00,
2013-11-26 11:23:00,33.0,26.0,30.29,WSW,245,0.0,3.0,76,0.00,,,0.00,,2013-11-26 16:23:00,
2013-11-26 11:54:00,33.0,27.0,30.28,WSW,257,2.0,6.0,77,0.00,,,0.00,,2013-11-26 16:54:00,
2013-11-26 12:22:00,34.0,28.0,30.27,SW,217,1.0,3.0,77,0.00,,,0.00,,2013-11-26 17:22:00,
2013-11-26 12:42:00,34.0,28.0,30.28,WSW,252,1.0,7.0,77,0.00,,,0.00,,2013-11-26 17:42:00,
2013-11-26 12:52:00,34.0,28.0,30.27,WSW,247,2.0,6.0,77,0.00,,,0.00,,2013-11-26 17:52:00,
2013-11-26 13:22:00,34.0,28.0,30.26,WSW,239,0.0,2.0,78,0.00,,,0.00,,2013-11-26 18:22:00,
2013-11-26 13:42:00,34.0,28.0,30.24,WSW,239,0.0,3.0,79,0.00,,,0.00,,2013-11-26 18:42:00,
2013-11-26 13:53:00,34.0,28.0,30.24,SSW,209,0.0,3.0,79,0.01,,,0.01,,2013-11-26 18:53:00,
2013-11-26 14:22:00,33.0,27.0,30.24,SSW,205,0.0,2.0,79,0.01,,,0.01,,2013-11-26 19:22:00,
2013-11-26 14:52:00,33.0,27.0,30.22,SSW,209,0.0,2.0,79,0.00,,,0.01,,2013-11-26 19:52:00,
2013-11-26 15:22:00,33.0,27.0,30.22,SW,214,2.0,7.0,78,0.00,,,0.01,,2013-11-26 20:22:00,
2013-11-26 15:42:00,33.0,27.0,30.22,South,184,1.0,3.0,78,0.00,,,0.01,,2013-11-26 20:42:00,
2013-11-26 15:53:00,33.0,27.0,30.21,South,184,0.0,2.0,78,0.00,,,0.01,,2013-11-26 20:53:00,
2013-11-26 16:22:00,33.0,27.0,30.19,SE,146,0.0,3.0,77,0.01,,,0.02,,2013-11-26 21:22:00,
2013-11-26 16:43:00,33.0,26.0,30.19,SE,146,0.0,3.0,75,0.02,,,0.03,,2013-11-26 21:43:00,
2013-11-26 16:53:00,33.0,26.0,30.19,SE,146,0.0,3.0,75,0.03,,,0.04,,2013-11-26 21:53:00,
2013-11-26 17:23:00,33.0,26.0,30.19,ESE,117,0.0,3.0,75,0.04,,,0.06,,2013-11-26 22:23:00,
2013-11-26 17:43:00,33.0,26.0,30.18,ESE,117,1.0,3.0,74,0.04,,,0.07,,2013-11-26 22:43:00,
2013-11-26 17:53:00,33.0,26.0,30.17,ESE,117,0.0,5.0,74,0.04,,,0.08,,2013-11-26 22:53:00,
2013-11-26 18:22:00,33.0,26.0,30.16,ESE,117,1.0,3.0,74,0.04,,,0.10,,2013-11-26 23:22:00,
2013-11-26 18:43:00,33.0,26.0,30.16,ESE,117,0.0,3.0,74,0.04,,,0.11,,2013-11-26 23:43:00,
2013-11-26 18:53:00,33.0,26.0,30.16,ESE,117,0.0,1.0,74,0.04,,,0.12,,2013-11-26 23:53:00,
2013-11-26 19:11:00,33.0,26.0,30.16,ESE,118,0.0,1.0,74,0.03,,,0.13,,2013-11-27 00:11:00,
2013-11-26 19:22:00,33.0,26.0,30.16,ESE,117,0.0,2.0,74,0.05,,,0.15,,2013-11-27 00:22:00,
2013-11-26 19:52:00,33.0,26.0,30.13,ESE,117,0.0,2.0,74,0.08,,,0.20,,2013-11-27 00:52:00,
2013-11-26 20:22:00,33.0,26.0,30.11,East,100,0.0,6.0,74,0.09,,,0.24,,2013-11-27 01:22:00,
2013-11-26 20:42:00,33.0,26.0,30.09,East,100,0.0,1.0,74,0.10,,,0.28,,2013-11-27 01:42:00,
2013-11-26 20:52:00,33.0,26.0,30.09,East,101,0.0,1.0,74,0.10,,,0.30,,2013-11-27 01:52:00,
2013-11-26 21:12:00,33.0,26.0,30.06,ESE,102,1.0,3.0,74,0.09,,,0.32,,2013-11-27 02:12:00,
2013-11-26 21:22:00,33.0,26.0,30.06,East,101,0.0,3.0,74,0.10,,,0.34,,2013-11-27 02:22:00,
2013-11-26 21:42:00,33.0,26.0,30.04,East,101,0.0,5.0,74,0.08,,,0.36,,2013-11-27 02:42:00,
2013-11-26 21:52:00,33.0,26.0,30.03,East,101,1.0,3.0,74,0.07,,,0.37,,2013-11-27 02:52:00,
2013-11-26 22:22:00,34.0,27.0,30.00,ESE,103,0.0,2.0,74,0.08,,,0.42,,2013-11-27 03:22:00,
2013-11-26 22:44:00,34.0,27.0,29.98,ESE,102,0.0,2.0,74,0.09,,,0.45,,2013-11-27 03:44:00,
2013-11-26 22:53:00,34.0,27.0,29.97,ESE,102,0.0,3.0,74,0.11,,,0.48,,2013-11-27 03:53:00,
2013-11-26 23:13:00,34.0,27.0,29.94,ESE,112,1.0,7.0,74,0.12,,,0.52,,2013-11-27 04:13:00,
2013-11-26 23:43:00,35.0,28.0,29.91,ESE,109,2.0,9.0,74,0.11,,,0.54,,2013-11-27 04:43:00,
2013-11-26 23:53:00,36.0,29.0,29.89,East,101,1.0,5.0,75,0.11,,,0.59,,2013-11-27 04:53:00,